createdAt,value
2018-06-17T00:01:19.273Z,1008.79
2018-06-17T00:06:14.920Z,1008.83
2018-06-17T00:11:10.655Z,1008.80
2018-06-17T00:16:06.547Z,1008.78
2018-06-17T00:21:02.446Z,1008.81
2018-06-17T00:25:57.931Z,1008.82
2018-06-17T00:30:53.759Z,1008.84
2018-06-17T00:35:50.140Z,1008.76
2018-06-17T00:40:47.142Z,1008.73
2018-06-17T00:45:43.049Z,1008.82
2018-06-17T00:50:38.917Z,1008.84
2018-06-17T00:55:34.562Z,1008.80
2018-06-17T01:00:30.422Z,1008.83
2018-06-17T01:05:26.351Z,1008.77
2018-06-17T01:10:22.056Z,1008.75
2018-06-17T01:15:18.159Z,1008.84
2018-06-17T01:20:15.735Z,1008.90
2018-06-17T01:25:12.360Z,1008.82
2018-06-17T01:30:08.546Z,1008.84
2018-06-17T01:35:05.568Z,1008.91
2018-06-17T01:40:00.817Z,1008.85
2018-06-17T01:44:56.904Z,1008.91
2018-06-17T01:49:53.833Z,1008.89
2018-06-17T01:54:49.047Z,1008.86
2018-06-17T01:59:45.021Z,1008.87
2018-06-17T02:04:41.578Z,1008.91
2018-06-17T02:09:37.460Z,1008.99
2018-06-17T02:14:34.148Z,1008.82
2018-06-17T02:19:29.650Z,1008.88
2018-06-17T02:24:25.633Z,1008.81
2018-06-17T02:29:21.515Z,1008.93
2018-06-17T02:34:17.211Z,1008.92
2018-06-17T02:39:13.003Z,1008.98
2018-06-17T02:44:09.890Z,1009.05
2018-06-17T02:49:05.984Z,1009.04
2018-06-17T02:54:02.806Z,1008.98
2018-06-17T02:58:58.391Z,1009.06
2018-06-17T03:03:54.449Z,1009.07
2018-06-17T03:08:51.296Z,1008.91
2018-06-17T03:13:47.960Z,1008.96
2018-06-17T03:18:43.516Z,1009.11
2018-06-17T03:23:39.400Z,1009.13
2018-06-17T03:28:35.491Z,1009.15
2018-06-17T03:33:32.096Z,1009.14
2018-06-17T03:38:28.043Z,1009.02
2018-06-17T03:43:24.059Z,1009.06
2018-06-17T03:48:20.150Z,1009.11
2018-06-17T03:53:15.988Z,1009.08
2018-06-17T03:58:12.393Z,1009.05
2018-06-17T04:03:08.178Z,1009.11
2018-06-17T04:08:04.207Z,1009.19
2018-06-17T04:13:00.560Z,1009.17
2018-06-17T04:17:56.632Z,1009.12
2018-06-17T04:22:53.871Z,1009.18
2018-06-17T04:27:49.417Z,1009.18
2018-06-17T04:32:45.391Z,1009.09
2018-06-17T04:37:42.886Z,1009.14
2018-06-17T04:42:38.845Z,1009.13
2018-06-17T04:47:34.563Z,1009.20
2018-06-17T04:52:31.543Z,1009.12
2018-06-17T04:57:27.173Z,1009.10
2018-06-17T05:02:23.747Z,1009.16
2018-06-17T05:07:20.316Z,1009.13
2018-06-17T05:12:17.054Z,1009.19
2018-06-17T05:17:14.740Z,1009.24
2018-06-17T05:22:12.343Z,1009.26
2018-06-17T05:27:11.257Z,1009.15
2018-06-17T05:32:08.155Z,1009.11
2018-06-17T05:37:06.122Z,1009.23
2018-06-17T05:42:02.414Z,1009.15
2018-06-17T05:46:59.046Z,1009.30
2018-06-17T05:51:56.759Z,1009.25
2018-06-17T05:56:52.737Z,1009.14
2018-06-17T06:01:47.520Z,1009.20
2018-06-17T06:06:41.864Z,1009.16
2018-06-17T06:11:36.523Z,1009.25
2018-06-17T06:16:31.493Z,1009.30
2018-06-17T06:21:26.939Z,1009.27
2018-06-17T06:26:22.642Z,1009.28
2018-06-17T06:31:19.390Z,1009.41
2018-06-17T06:36:15.258Z,1009.42
2018-06-17T06:41:10.981Z,1009.32
2018-06-17T06:46:07.059Z,1009.43
2018-06-17T06:51:04.077Z,1009.34
2018-06-17T06:55:59.601Z,1009.37
2018-06-17T07:00:55.479Z,1009.40
2018-06-17T07:05:52.413Z,1009.53
2018-06-17T07:10:47.741Z,1009.63
2018-06-17T07:15:43.538Z,1009.49
2018-06-17T07:20:39.626Z,1009.62
2018-06-17T07:25:36.035Z,1009.57
2018-06-17T07:30:31.990Z,1009.65
2018-06-17T07:35:28.297Z,1009.73
2018-06-17T07:40:24.598Z,1009.75
2018-06-17T07:45:21.683Z,1009.79
2018-06-17T07:50:18.836Z,1009.83
2018-06-17T07:55:16.259Z,1009.86
2018-06-17T08:00:13.662Z,1009.88
2018-06-17T08:05:11.330Z,1009.91
2018-06-17T08:10:07.868Z,1009.85
2018-06-17T08:15:02.944Z,1009.95
2018-06-17T08:20:00.566Z,1009.92
2018-06-17T08:24:57.350Z,1009.85
2018-06-17T08:29:52.804Z,1009.98
2018-06-17T08:34:47.901Z,1009.87
2018-06-17T08:39:44.293Z,1009.93
2018-06-17T08:44:39.371Z,1009.88
2018-06-17T08:49:34.661Z,1009.93
2018-06-17T08:54:31.230Z,1009.99
2018-06-17T08:59:26.536Z,1009.94
2018-06-17T09:04:23.019Z,1010.02
2018-06-17T09:09:19.501Z,1010.08
2018-06-17T09:14:16.267Z,1010.10
2018-06-17T09:19:12.565Z,1010.08
2018-06-17T09:24:08.714Z,1010.08
2018-06-17T09:29:04.382Z,1010.12
2018-06-17T09:34:01.106Z,1010.08
2018-06-17T09:38:56.550Z,1010.11
2018-06-17T09:43:52.416Z,1010.14
2018-06-17T09:48:48.268Z,1010.16
2018-06-17T09:53:45.429Z,1010.16
2018-06-17T09:58:42.339Z,1010.31
2018-06-17T10:03:38.263Z,1010.33
2018-06-17T10:08:35.308Z,1010.23
2018-06-17T10:13:31.996Z,1010.26
2018-06-17T10:18:27.506Z,1010.32
2018-06-17T10:23:24.483Z,1010.32
2018-06-17T10:28:20.200Z,1010.29
2018-06-17T10:33:17.259Z,1010.47
2018-06-17T10:38:13.728Z,1010.50
2018-06-17T10:43:09.407Z,1010.50
2018-06-17T10:48:05.417Z,1010.57
2018-06-17T10:53:02.694Z,1010.61
2018-06-17T10:57:59.138Z,1010.52
2018-06-17T11:02:55.218Z,1010.67
2018-06-17T11:07:51.272Z,1010.70
2018-06-17T11:12:48.996Z,1010.72
2018-06-17T11:17:44.671Z,1010.76
2018-06-17T11:22:40.353Z,1010.73
2018-06-17T11:27:36.819Z,1010.70
2018-06-17T11:32:33.344Z,1010.86
2018-06-17T11:37:28.919Z,1010.85
2018-06-17T11:42:25.139Z,1010.75
2018-06-17T11:47:21.311Z,1010.82
2018-06-17T11:52:17.957Z,1010.92
2018-06-17T11:57:14.432Z,1011.03
2018-06-17T12:02:11.280Z,1010.99
2018-06-17T12:07:08.164Z,1011.04
2018-06-17T12:12:05.066Z,1011.03
2018-06-17T12:17:01.468Z,1011.07
2018-06-17T12:21:58.727Z,1011.07
2018-06-17T12:26:55.391Z,1011.19
2018-06-17T12:31:51.768Z,1011.14
2018-06-17T12:36:48.701Z,1011.08
2018-06-17T12:41:46.963Z,1011.10
2018-06-17T12:46:43.182Z,1011.16
2018-06-17T12:51:38.644Z,1011.08
2018-06-17T12:56:34.707Z,1011.29
2018-06-17T13:01:29.873Z,1011.21
2018-06-17T13:06:25.377Z,1011.22
2018-06-17T13:11:21.148Z,1011.36
2018-06-17T13:16:16.611Z,1011.29
2018-06-17T13:21:12.296Z,1011.30
2018-06-17T13:26:07.918Z,1011.35
2018-06-17T13:31:03.641Z,1011.29
2018-06-17T13:36:00.687Z,1011.34
2018-06-17T13:40:57.559Z,1011.32
2018-06-17T13:45:53.220Z,1011.39
2018-06-17T13:50:49.891Z,1011.29
2018-06-17T13:55:46.470Z,1011.31
2018-06-17T14:00:43.125Z,1011.28
2018-06-17T14:05:39.244Z,1011.33
2018-06-17T14:10:36.537Z,1011.37
2018-06-17T14:15:32.177Z,1011.38
2018-06-17T14:20:28.246Z,1011.38
2018-06-17T14:25:24.221Z,1011.41
2018-06-17T14:30:20.097Z,1011.46
2018-06-17T14:35:16.831Z,1011.50
2018-06-17T14:40:12.518Z,1011.53
2018-06-17T14:45:09.723Z,1011.54
2018-06-17T14:50:05.242Z,1011.46
2018-06-17T14:55:01.287Z,1011.42
2018-06-17T14:59:57.150Z,1011.48
2018-06-17T15:04:53.257Z,1011.53
2018-06-17T15:09:50.153Z,1011.44
2018-06-17T15:14:45.614Z,1011.39
2018-06-17T15:19:42.484Z,1011.43
2018-06-17T15:24:38.114Z,1011.48
2018-06-17T15:29:33.937Z,1011.39
2018-06-17T15:34:31.018Z,1011.39
2018-06-17T15:39:26.631Z,1011.46
2018-06-17T15:44:22.724Z,1011.50
2018-06-17T15:49:20.301Z,1011.42
2018-06-17T15:54:15.769Z,1011.32
2018-06-17T15:59:12.642Z,1011.32
2018-06-17T16:04:08.129Z,1011.25
2018-06-17T16:09:03.801Z,1011.27
2018-06-17T16:13:59.619Z,1011.23
2018-06-17T16:18:56.512Z,1011.33
2018-06-17T16:23:56.226Z,1011.34
2018-06-17T16:28:51.624Z,1011.45
2018-06-17T16:33:47.498Z,1011.54
2018-06-17T16:38:43.480Z,1011.51
2018-06-17T16:43:39.265Z,1011.43
2018-06-17T16:48:34.933Z,1011.49
2018-06-17T16:53:31.709Z,1011.58
2018-06-17T16:58:27.202Z,1011.57
2018-06-17T17:03:22.951Z,1011.63
2018-06-17T17:08:19.827Z,1011.68
2018-06-17T17:13:15.968Z,1011.52
2018-06-17T17:18:12.065Z,1011.64
2018-06-17T17:23:08.207Z,1011.63
2018-06-17T17:28:04.157Z,1011.71
2018-06-17T17:32:59.898Z,1011.83
2018-06-17T17:37:59.599Z,1011.92
2018-06-17T17:42:55.426Z,1011.92
2018-06-17T17:47:51.971Z,1011.91
2018-06-17T17:52:47.649Z,1011.81
2018-06-17T17:57:43.544Z,1011.90
2018-06-17T18:02:40.915Z,1011.91
2018-06-17T18:07:36.469Z,1011.95
2018-06-17T18:12:32.309Z,1011.89
2018-06-17T18:17:28.091Z,1011.95
2018-06-17T18:22:24.851Z,1011.97
2018-06-17T18:27:20.402Z,1011.99
2018-06-17T18:32:17.245Z,1011.93
2018-06-17T18:37:12.718Z,1012.01
2018-06-17T18:42:09.623Z,1011.97
2018-06-17T18:47:09.110Z,1011.96
2018-06-17T18:52:05.034Z,1011.94
2018-06-17T18:57:00.381Z,1012.07
2018-06-17T19:01:56.200Z,1012.08
2018-06-17T19:06:52.778Z,1012.11
2018-06-17T19:11:49.738Z,1012.26
2018-06-17T19:16:46.256Z,1012.39
2018-06-17T19:21:42.854Z,1012.31
2018-06-17T19:26:39.330Z,1012.45
2018-06-17T19:31:35.998Z,1012.51
2018-06-17T19:36:31.349Z,1012.56
2018-06-17T19:41:28.277Z,1012.70
2018-06-17T19:46:24.800Z,1012.74
2018-06-17T19:51:20.251Z,1012.75
2018-06-17T19:56:17.018Z,1012.82
2018-06-17T20:01:12.444Z,1012.79
2018-06-17T20:06:09.415Z,1012.82
2018-06-17T20:11:04.952Z,1012.91
2018-06-17T20:16:00.874Z,1012.96
2018-06-17T20:20:56.636Z,1012.93
2018-06-17T20:25:53.458Z,1012.96
2018-06-17T20:30:50.040Z,1012.90
2018-06-17T20:35:45.761Z,1012.97
2018-06-17T20:40:41.655Z,1012.93
2018-06-17T20:45:38.213Z,1012.99
2018-06-17T20:50:35.422Z,1013.00
2018-06-17T20:55:30.895Z,1013.07
2018-06-17T21:00:26.568Z,1013.09
2018-06-17T21:05:22.663Z,1013.04
2018-06-17T21:10:18.362Z,1013.03
2018-06-17T21:15:14.002Z,1013.03
2018-06-17T21:20:10.364Z,1013.08
2018-06-17T21:25:07.059Z,1013.03
2018-06-17T21:30:03.399Z,1013.06
2018-06-17T21:34:58.981Z,1013.16
2018-06-17T21:39:55.780Z,1013.24
2018-06-17T21:44:51.006Z,1013.12
2018-06-17T21:49:47.024Z,1013.05
2018-06-17T21:54:42.943Z,1013.09
2018-06-17T21:59:38.632Z,1013.24
2018-06-17T22:04:34.857Z,1013.13
2018-06-17T22:09:30.716Z,1013.06
2018-06-17T22:14:26.705Z,1013.07
2018-06-17T22:19:23.534Z,1013.18
2018-06-17T22:24:19.795Z,1013.12
2018-06-17T22:29:15.295Z,1013.20
2018-06-17T22:34:11.320Z,1013.24
2018-06-17T22:39:07.749Z,1013.15
2018-06-17T22:44:03.501Z,1013.08
2018-06-17T22:48:59.937Z,1013.17
2018-06-17T22:53:55.830Z,1013.19
2018-06-17T22:58:52.440Z,1013.17
2018-06-17T23:03:49.166Z,1013.11
2018-06-17T23:08:45.676Z,1013.22
2018-06-17T23:13:41.381Z,1013.39
2018-06-17T23:18:37.445Z,1013.33
2018-06-17T23:23:33.366Z,1013.34
2018-06-17T23:28:29.162Z,1013.36
2018-06-17T23:33:25.053Z,1013.60
2018-06-17T23:38:20.817Z,1013.65
2018-06-17T23:43:16.663Z,1013.54
2018-06-17T23:48:12.507Z,1013.45
2018-06-17T23:53:09.365Z,1013.40
2018-06-17T23:58:04.739Z,1013.31
